sensor_id;sensor_type;location;lat;lon;timestamp;temperature;humidity
14709;DHT22;7445;50.774;4.944;2023-05-23T06:54:28;14.60;99.90
14709;DHT22;7445;50.774;4.944;2023-05-23T06:56:56;14.50;99.90
14709;DHT22;7445;50.774;4.944;2023-05-23T06:59:21;14.50;99.90
14709;DHT22;7445;50.774;4.944;2023-05-23T07:01:47;14.40;99.90
14709;DHT22;7445;50.774;4.944;2023-05-23T07:04:16;14.30;99.90
14709;DHT22;7445;50.774;4.944;2023-05-23T07:06:42;14.20;99.90
14709;DHT22;7445;50.774;4.944;2023-05-23T07:09:11;14.10;99.90
14709;DHT22;7445;50.774;4.944;2023-05-23T07:11:37;14.00;99.90
14709;DHT22;7445;50.774;4.944;2023-05-23T07:14:06;14.00;99.90
14709;DHT22;7445;50.774;4.944;2023-05-23T07:16:32;14.10;99.90
14709;DHT22;7445;50.774;4.944;2023-05-23T07:19:16;14.10;99.90
14709;DHT22;7445;50.774;4.944;2023-05-23T07:21:42;14.30;99.90
14709;DHT22;7445;50.774;4.944;2023-05-23T07:24:11;14.40;99.90
14709;DHT22;7445;50.774;4.944;2023-05-23T07:26:55;14.60;99.90
14709;DHT22;7445;50.774;4.944;2023-05-23T07:29:21;14.70;99.90
14709;DHT22;7445;50.774;4.944;2023-05-23T07:31:49;14.90;99.90
14709;DHT22;7445;50.774;4.944;2023-05-23T07:34:14;15.00;99.90
14709;DHT22;7445;50.774;4.944;2023-05-23T07:36:40;15.10;99.90
14709;DHT22;7445;50.774;4.944;2023-05-23T07:39:07;15.20;99.90
14709;DHT22;7445;50.774;4.944;2023-05-23T07:41:33;15.40;99.90
14709;DHT22;7445;50.774;4.944;2023-05-23T07:43:59;15.50;99.90
14709;DHT22;7445;50.774;4.944;2023-05-23T07:46:26;15.30;99.90
14709;DHT22;7445;50.774;4.944;2023-05-23T07:49:00;15.50;99.90
14709;DHT22;7445;50.774;4.944;2023-05-23T07:51:37;15.60;99.90
14709;DHT22;7445;50.774;4.944;2023-05-23T07:54:05;15.30;99.90
14709;DHT22;7445;50.774;4.944;2023-05-23T07:56:33;15.10;99.90
14709;DHT22;7445;50.774;4.944;2023-05-23T07:59:01;15.00;99.90
14709;DHT22;7445;50.774;4.944;2023-05-23T08:01:28;14.90;99.90
14709;DHT22;7445;50.774;4.944;2023-05-23T08:03:57;15.00;99.90
14709;DHT22;7445;50.774;4.944;2023-05-23T08:06:23;15.00;99.90
14709;DHT22;7445;50.774;4.944;2023-05-23T08:08:52;15.00;99.90
14709;DHT22;7445;50.774;4.944;2023-05-23T08:11:18;14.90;99.90
14709;DHT22;7445;50.774;4.944;2023-05-23T08:13:44;15.00;99.90
14709;DHT22;7445;50.774;4.944;2023-05-23T08:16:11;15.10;99.90
14709;DHT22;7445;50.774;4.944;2023-05-23T08:18:40;15.10;99.90
14709;DHT22;7445;50.774;4.944;2023-05-23T08:21:07;15.20;99.90
14709;DHT22;7445;50.774;4.944;2023-05-23T08:23:34;15.60;99.90
14709;DHT22;7445;50.774;4.944;2023-05-23T08:26:00;15.90;99.90
14709;DHT22;7445;50.774;4.944;2023-05-23T08:28:29;16.20;99.90
14709;DHT22;7445;50.774;4.944;2023-05-23T08:30:56;15.90;99.90
14709;DHT22;7445;50.774;4.944;2023-05-23T08:33:22;15.40;99.90
14709;DHT22;7445;50.774;4.944;2023-05-23T08:35:48;15.10;99.90
14709;DHT22;7445;50.774;4.944;2023-05-23T08:38:14;14.70;99.90
14709;DHT22;7445;50.774;4.944;2023-05-23T08:40:41;14.60;99.90
14709;DHT22;7445;50.774;4.944;2023-05-23T08:43:13;14.50;99.90
14709;DHT22;7445;50.774;4.944;2023-05-23T08:45:39;14.40;99.90
14709;DHT22;7445;50.774;4.944;2023-05-23T08:48:08;14.40;99.90
14709;DHT22;7445;50.774;4.944;2023-05-23T08:50:39;14.60;99.90
14709;DHT22;7445;50.774;4.944;2023-05-23T08:53:08;14.70;99.90
14709;DHT22;7445;50.774;4.944;2023-05-23T08:55:36;14.80;99.90
14709;DHT22;7445;50.774;4.944;2023-05-23T08:58:02;14.80;99.90
14709;DHT22;7445;50.774;4.944;2023-05-23T09:00:28;15.10;99.90
14709;DHT22;7445;50.774;4.944;2023-05-23T09:02:57;15.20;99.90
14709;DHT22;7445;50.774;4.944;2023-05-23T09:05:22;15.10;99.90
14709;DHT22;7445;50.774;4.944;2023-05-23T09:07:48;15.30;99.90
14709;DHT22;7445;50.774;4.944;2023-05-23T09:10:19;15.80;99.90
14709;DHT22;7445;50.774;4.944;2023-05-23T09:12:45;16.30;99.90
14709;DHT22;7445;50.774;4.944;2023-05-23T09:15:11;16.60;99.90
14709;DHT22;7445;50.774;4.944;2023-05-23T09:17:47;16.50;99.90
14709;DHT22;7445;50.774;4.944;2023-05-23T09:20:15;16.80;99.90
14709;DHT22;7445;50.774;4.944;2023-05-23T09:22:45;16.80;99.90
14709;DHT22;7445;50.774;4.944;2023-05-23T09:25:12;17.00;99.90
14709;DHT22;7445;50.774;4.944;2023-05-23T09:27:38;16.90;99.90
14709;DHT22;7445;50.774;4.944;2023-05-23T09:30:09;16.80;99.90
14709;DHT22;7445;50.774;4.944;2023-05-23T09:32:35;16.80;99.90
14709;DHT22;7445;50.774;4.944;2023-05-23T09:35:06;16.90;99.90
14709;DHT22;7445;50.774;4.944;2023-05-23T09:37:42;16.90;99.90
14709;DHT22;7445;50.774;4.944;2023-05-23T09:40:12;17.10;99.90
14709;DHT22;7445;50.774;4.944;2023-05-23T09:42:50;17.30;99.90
14709;DHT22;7445;50.774;4.944;2023-05-23T09:45:16;17.00;99.90
14709;DHT22;7445;50.774;4.944;2023-05-23T09:47:52;16.60;99.90
14709;DHT22;7445;50.774;4.944;2023-05-23T09:50:20;16.50;99.90
14709;DHT22;7445;50.774;4.944;2023-05-23T09:52:48;16.50;99.90
14709;DHT22;7445;50.774;4.944;2023-05-23T09:55:18;16.10;99.90
14709;DHT22;7445;50.774;4.944;2023-05-23T09:57:53;16.30;99.90
14709;DHT22;7445;50.774;4.944;2023-05-23T10:00:22;16.30;99.90
14709;DHT22;7445;50.774;4.944;2023-05-23T10:03:11;16.60;99.90
14709;DHT22;7445;50.774;4.944;2023-05-23T10:05:45;16.60;99.90
14709;DHT22;7445;50.774;4.944;2023-05-23T10:08:47;16.50;99.90
14709;DHT22;7445;50.774;4.944;2023-05-23T10:14:05;16.50;99.90
14709;DHT22;7445;50.774;4.944;2023-05-23T10:19:48;16.00;99.90
14709;DHT22;7445;50.774;4.944;2023-05-23T10:22:16;16.10;99.90
14709;DHT22;7445;50.774;4.944;2023-05-23T10:24:44;16.00;99.90
14709;DHT22;7445;50.774;4.944;2023-05-23T10:28:01;16.20;99.90
14709;DHT22;7445;50.774;4.944;2023-05-23T10:30:28;16.10;99.90
14709;DHT22;7445;50.774;4.944;2023-05-23T10:32:55;16.20;99.90
14709;DHT22;7445;50.774;4.944;2023-05-23T10:41:08;16.30;99.90
14709;DHT22;7445;50.774;4.944;2023-05-23T10:44:11;16.30;99.90
14709;DHT22;7445;50.774;4.944;2023-05-23T10:46:55;16.50;99.90
14709;DHT22;7445;50.774;4.944;2023-05-23T10:49:39;16.70;99.90
14709;DHT22;7445;50.774;4.944;2023-05-23T10:52:08;16.70;99.90
14709;DHT22;7445;50.774;4.944;2023-05-23T10:54:51;16.70;99.90
14709;DHT22;7445;50.774;4.944;2023-05-23T10:57:24;16.70;99.90
14709;DHT22;7445;50.774;4.944;2023-05-23T10:59:52;16.80;99.90
14709;DHT22;7445;50.774;4.944;2023-05-23T11:02:28;16.90;99.90
14709;DHT22;7445;50.774;4.944;2023-05-23T11:05:27;16.80;99.90
14709;DHT22;7445;50.774;4.944;2023-05-23T11:08:11;16.10;99.90
14709;DHT22;7445;50.774;4.944;2023-05-23T11:10:59;16.40;99.90
14709;DHT22;7445;50.774;4.944;2023-05-23T11:13:52;16.70;99.90
14709;DHT22;7445;50.774;4.944;2023-05-23T11:16:42;16.90;99.90
14709;DHT22;7445;50.774;4.944;2023-05-23T11:19:28;16.80;99.90
14709;DHT22;7445;50.774;4.944;2023-05-23T11:22:01;17.00;99.90
14709;DHT22;7445;50.774;4.944;2023-05-23T11:24:52;17.30;99.90
14709;DHT22;7445;50.774;4.944;2023-05-23T11:27:38;18.00;99.90
14709;DHT22;7445;50.774;4.944;2023-05-23T11:30:12;17.70;99.90
14709;DHT22;7445;50.774;4.944;2023-05-23T11:32:38;17.70;99.90
14709;DHT22;7445;50.774;4.944;2023-05-23T11:35:06;17.60;99.60
14709;DHT22;7445;50.774;4.944;2023-05-23T11:37:34;17.60;99.90
14709;DHT22;7445;50.774;4.944;2023-05-23T11:40:33;17.70;99.90
14709;DHT22;7445;50.774;4.944;2023-05-23T11:43:01;17.30;99.10
14709;DHT22;7445;50.774;4.944;2023-05-23T11:45:28;17.70;99.90
14709;DHT22;7445;50.774;4.944;2023-05-23T11:48:12;17.70;99.40
14709;DHT22;7445;50.774;4.944;2023-05-23T11:53:21;17.60;99.90
14709;DHT22;7445;50.774;4.944;2023-05-23T11:55:54;17.90;99.90
14709;DHT22;7445;50.774;4.944;2023-05-23T11:58:34;18.00;98.60
14709;DHT22;7445;50.774;4.944;2023-05-23T12:01:09;17.70;98.70
14709;DHT22;7445;50.774;4.944;2023-05-23T12:03:49;18.00;99.90
14709;DHT22;7445;50.774;4.944;2023-05-23T12:06:18;18.60;97.10
14709;DHT22;7445;50.774;4.944;2023-05-23T12:08:55;19.50;91.50
14709;DHT22;7445;50.774;4.944;2023-05-23T12:12:04;19.30;87.50
14709;DHT22;7445;50.774;4.944;2023-05-23T12:15:18;18.80;87.00
14709;DHT22;7445;50.774;4.944;2023-05-23T12:21:03;18.60;94.70
14709;DHT22;7445;50.774;4.944;2023-05-23T12:23:41;18.50;86.40
14709;DHT22;7445;50.774;4.944;2023-05-23T12:26:10;18.20;93.70
14709;DHT22;7445;50.774;4.944;2023-05-23T12:28:58;18.50;92.10
14709;DHT22;7445;50.774;4.944;2023-05-23T12:31:48;19.50;90.50
14709;DHT22;7445;50.774;4.944;2023-05-23T12:34:14;20.30;78.70
14709;DHT22;7445;50.774;4.944;2023-05-23T12:37:01;19.90;56.80
14709;DHT22;7445;50.774;4.944;2023-05-23T12:39:43;19.60;80.70
14709;DHT22;7445;50.774;4.944;2023-05-23T12:42:11;19.10;82.50
14709;DHT22;7445;50.774;4.944;2023-05-23T12:45:09;18.70;89.20
14709;DHT22;7445;50.774;4.944;2023-05-23T12:47:43;18.20;89.20
14709;DHT22;7445;50.774;4.944;2023-05-23T12:59:30;19.10;84.70
14709;DHT22;7445;50.774;4.944;2023-05-23T13:01:56;19.00;65.20
14709;DHT22;7445;50.774;4.944;2023-05-23T13:04:24;19.10;81.20
14709;DHT22;7445;50.774;4.944;2023-05-23T13:06:49;19.20;70.60
14709;DHT22;7445;50.774;4.944;2023-05-23T13:09:15;18.90;65.20
14709;DHT22;7445;50.774;4.944;2023-05-23T13:11:41;18.90;72.00
14709;DHT22;7445;50.774;4.944;2023-05-23T13:14:07;19.30;60.50
14709;DHT22;7445;50.774;4.944;2023-05-23T13:16:32;20.50;82.00
14709;DHT22;7445;50.774;4.944;2023-05-23T13:19:00;20.70;53.60
14709;DHT22;7445;50.774;4.944;2023-05-23T13:21:26;20.20;51.70
14709;DHT22;7445;50.774;4.944;2023-05-23T13:23:52;19.90;56.70
14709;DHT22;7445;50.774;4.944;2023-05-23T13:26:17;19.70;46.40
14709;DHT22;7445;50.774;4.944;2023-05-23T13:28:43;19.90;55.80
14709;DHT22;7445;50.774;4.944;2023-05-23T13:31:09;20.10;61.20
14709;DHT22;7445;50.774;4.944;2023-05-23T13:33:34;19.90;53.10
14709;DHT22;7445;50.774;4.944;2023-05-23T13:36:01;19.80;57.20
14709;DHT22;7445;50.774;4.944;2023-05-23T13:38:27;20.50;43.20
14709;DHT22;7445;50.774;4.944;2023-05-23T13:40:55;20.50;44.80
14709;DHT22;7445;50.774;4.944;2023-05-23T13:43:20;20.40;42.70
14709;DHT22;7445;50.774;4.944;2023-05-23T13:45:46;19.80;52.80
14709;DHT22;7445;50.774;4.944;2023-05-23T13:48:12;19.60;52.90
14709;DHT22;7445;50.774;4.944;2023-05-23T13:50:38;19.30;47.30
14709;DHT22;7445;50.774;4.944;2023-05-23T13:53:03;18.90;49.20
14709;DHT22;7445;50.774;4.944;2023-05-23T13:55:36;19.20;50.00
14709;DHT22;7445;50.774;4.944;2023-05-23T13:58:02;20.20;55.20
14709;DHT22;7445;50.774;4.944;2023-05-23T14:00:27;20.40;44.30
14709;DHT22;7445;50.774;4.944;2023-05-23T14:02:53;20.50;44.90
14709;DHT22;7445;50.774;4.944;2023-05-23T14:05:19;20.70;42.20
14709;DHT22;7445;50.774;4.944;2023-05-23T14:07:44;21.20;53.00
14709;DHT22;7445;50.774;4.944;2023-05-23T14:10:12;20.80;40.50
14709;DHT22;7445;50.774;4.944;2023-05-23T14:12:38;20.40;41.40
14709;DHT22;7445;50.774;4.944;2023-05-23T14:15:04;19.60;45.50
14709;DHT22;7445;50.774;4.944;2023-05-23T14:17:30;19.20;43.10
14709;DHT22;7445;50.774;4.944;2023-05-23T14:19:55;19.50;44.30
14709;DHT22;7445;50.774;4.944;2023-05-23T14:22:21;19.90;45.10
14709;DHT22;7445;50.774;4.944;2023-05-23T14:24:47;20.50;43.10
14709;DHT22;7445;50.774;4.944;2023-05-23T14:27:13;21.10;43.40
14709;DHT22;7445;50.774;4.944;2023-05-23T14:29:39;20.60;39.20
14709;DHT22;7445;50.774;4.944;2023-05-23T14:32:05;20.00;37.70
14709;DHT22;7445;50.774;4.944;2023-05-23T14:34:30;20.30;39.60
14709;DHT22;7445;50.774;4.944;2023-05-23T14:36:56;20.70;35.10
14709;DHT22;7445;50.774;4.944;2023-05-23T14:39:22;21.00;39.80
14709;DHT22;7445;50.774;4.944;2023-05-23T14:41:47;21.20;34.70
14709;DHT22;7445;50.774;4.944;2023-05-23T14:44:13;21.20;36.00
14709;DHT22;7445;50.774;4.944;2023-05-23T14:46:38;21.70;35.20
14709;DHT22;7445;50.774;4.944;2023-05-23T14:49:06;21.60;36.10
14709;DHT22;7445;50.774;4.944;2023-05-23T14:51:31;20.90;35.50
14709;DHT22;7445;50.774;4.944;2023-05-23T14:53:58;20.70;44.50
14709;DHT22;7445;50.774;4.944;2023-05-23T14:56:24;21.30;39.90
14709;DHT22;7445;50.774;4.944;2023-05-23T14:58:51;20.80;33.00
14709;DHT22;7445;50.774;4.944;2023-05-23T15:01:17;20.50;35.30
14709;DHT22;7445;50.774;4.944;2023-05-23T15:03:42;20.30;38.50
14709;DHT22;7445;50.774;4.944;2023-05-23T15:06:08;20.30;36.10
14709;DHT22;7445;50.774;4.944;2023-05-23T15:08:34;20.30;37.40
14709;DHT22;7445;50.774;4.944;2023-05-23T15:10:59;20.70;36.20
14709;DHT22;7445;50.774;4.944;2023-05-23T15:13:25;20.60;36.30
14709;DHT22;7445;50.774;4.944;2023-05-23T15:15:51;20.70;38.40
14709;DHT22;7445;50.774;4.944;2023-05-23T15:18:18;20.70;37.70
14709;DHT22;7445;50.774;4.944;2023-05-23T15:20:45;20.50;39.10
14709;DHT22;7445;50.774;4.944;2023-05-23T15:23:11;20.60;37.20
14709;DHT22;7445;50.774;4.944;2023-05-23T15:25:36;20.30;36.90
14709;DHT22;7445;50.774;4.944;2023-05-23T15:28:02;20.40;36.90
14709;DHT22;7445;50.774;4.944;2023-05-23T15:30:28;20.50;36.30
14709;DHT22;7445;50.774;4.944;2023-05-23T15:32:54;21.40;35.20
14709;DHT22;7445;50.774;4.944;2023-05-23T15:35:19;22.00;33.40
14709;DHT22;7445;50.774;4.944;2023-05-23T15:37:45;22.30;33.70
14709;DHT22;7445;50.774;4.944;2023-05-23T15:40:12;22.30;30.00
14709;DHT22;7445;50.774;4.944;2023-05-23T15:42:38;22.00;29.50
14709;DHT22;7445;50.774;4.944;2023-05-23T15:45:04;21.40;30.00
14709;DHT22;7445;50.774;4.944;2023-05-23T15:47:30;20.70;31.40
14709;DHT22;7445;50.774;4.944;2023-05-23T15:49:55;20.00;34.00
14709;DHT22;7445;50.774;4.944;2023-05-23T15:52:21;19.60;40.00
14709;DHT22;7445;50.774;4.944;2023-05-23T15:54:46;19.50;44.80
14709;DHT22;7445;50.774;4.944;2023-05-23T15:57:12;19.40;45.80
14709;DHT22;7445;50.774;4.944;2023-05-23T15:59:38;19.80;45.00
14709;DHT22;7445;50.774;4.944;2023-05-23T16:02:04;20.40;41.00
14709;DHT22;7445;50.774;4.944;2023-05-23T16:04:31;20.60;41.40
14709;DHT22;7445;50.774;4.944;2023-05-23T16:06:57;20.10;38.30
14709;DHT22;7445;50.774;4.944;2023-05-23T16:09:23;20.00;39.50
14709;DHT22;7445;50.774;4.944;2023-05-23T16:11:49;19.80;35.80
14709;DHT22;7445;50.774;4.944;2023-05-23T16:14:14;19.60;38.70
14709;DHT22;7445;50.774;4.944;2023-05-23T16:16:40;19.70;36.50
14709;DHT22;7445;50.774;4.944;2023-05-23T16:19:05;19.50;37.80
14709;DHT22;7445;50.774;4.944;2023-05-23T16:21:31;19.10;42.00
14709;DHT22;7445;50.774;4.944;2023-05-23T16:23:58;19.00;40.70
14709;DHT22;7445;50.774;4.944;2023-05-23T16:26:24;19.00;42.90
14709;DHT22;7445;50.774;4.944;2023-05-23T16:28:50;18.90;40.80
14709;DHT22;7445;50.774;4.944;2023-05-23T16:31:16;18.80;39.80
14709;DHT22;7445;50.774;4.944;2023-05-23T16:33:42;18.50;46.30
14709;DHT22;7445;50.774;4.944;2023-05-23T16:36:08;18.60;43.90
14709;DHT22;7445;50.774;4.944;2023-05-23T16:38:34;18.40;42.10
14709;DHT22;7445;50.774;4.944;2023-05-23T16:40:59;18.40;45.40
14709;DHT22;7445;50.774;4.944;2023-05-23T16:43:25;18.50;49.60
14709;DHT22;7445;50.774;4.944;2023-05-23T16:45:51;18.30;46.30
14709;DHT22;7445;50.774;4.944;2023-05-23T16:48:18;18.10;48.10
14709;DHT22;7445;50.774;4.944;2023-05-23T16:50:44;18.30;48.50
14709;DHT22;7445;50.774;4.944;2023-05-23T16:53:10;18.00;46.10
14709;DHT22;7445;50.774;4.944;2023-05-23T16:55:36;18.00;48.00
14709;DHT22;7445;50.774;4.944;2023-05-23T16:58:01;18.20;51.00
14709;DHT22;7445;50.774;4.944;2023-05-23T17:00:27;18.00;44.10
14709;DHT22;7445;50.774;4.944;2023-05-23T17:02:52;18.10;46.90
14709;DHT22;7445;50.774;4.944;2023-05-23T17:05:18;18.30;46.40
14709;DHT22;7445;50.774;4.944;2023-05-23T17:07:44;18.40;49.80
14709;DHT22;7445;50.774;4.944;2023-05-23T17:10:10;18.10;48.10
14709;DHT22;7445;50.774;4.944;2023-05-23T17:12:35;17.90;48.30
14709;DHT22;7445;50.774;4.944;2023-05-23T17:15:01;18.10;49.00
14709;DHT22;7445;50.774;4.944;2023-05-23T17:17:28;18.30;51.50
14709;DHT22;7445;50.774;4.944;2023-05-23T17:19:54;18.10;48.40
14709;DHT22;7445;50.774;4.944;2023-05-23T17:22:19;18.00;46.80
14709;DHT22;7445;50.774;4.944;2023-05-23T17:24:45;17.70;46.80
14709;DHT22;7445;50.774;4.944;2023-05-23T17:27:11;17.60;48.40
14709;DHT22;7445;50.774;4.944;2023-05-23T17:29:37;17.50;50.00
14709;DHT22;7445;50.774;4.944;2023-05-23T17:32:02;17.50;49.40
14709;DHT22;7445;50.774;4.944;2023-05-23T17:34:28;17.60;49.60
14709;DHT22;7445;50.774;4.944;2023-05-23T17:36:54;17.50;50.90
14709;DHT22;7445;50.774;4.944;2023-05-23T17:39:19;17.70;51.90
14709;DHT22;7445;50.774;4.944;2023-05-23T17:41:45;17.30;52.60
14709;DHT22;7445;50.774;4.944;2023-05-23T17:44:11;17.20;55.30
14709;DHT22;7445;50.774;4.944;2023-05-23T17:46:36;17.40;58.00
14709;DHT22;7445;50.774;4.944;2023-05-23T17:49:02;18.10;53.60
14709;DHT22;7445;50.774;4.944;2023-05-23T17:51:27;18.20;50.90
14709;DHT22;7445;50.774;4.944;2023-05-23T17:53:53;17.70;51.60
14709;DHT22;7445;50.774;4.944;2023-05-23T17:56:19;17.50;49.30
14709;DHT22;7445;50.774;4.944;2023-05-23T17:58:47;17.40;51.80
14709;DHT22;7445;50.774;4.944;2023-05-23T18:01:13;16.90;54.50
14709;DHT22;7445;50.774;4.944;2023-05-23T18:03:38;16.60;60.80
14709;DHT22;7445;50.774;4.944;2023-05-23T18:06:04;16.60;63.10
14709;DHT22;7445;50.774;4.944;2023-05-23T18:08:30;16.50;66.70
14709;DHT22;7445;50.774;4.944;2023-05-23T18:10:55;16.40;65.10
14709;DHT22;7445;50.774;4.944;2023-05-23T18:13:21;16.40;58.20
14709;DHT22;7445;50.774;4.944;2023-05-23T18:15:47;16.20;60.60
14709;DHT22;7445;50.774;4.944;2023-05-23T18:18:14;16.20;61.50
14709;DHT22;7445;50.774;4.944;2023-05-23T18:20:40;16.20;64.50
14709;DHT22;7445;50.774;4.944;2023-05-23T18:23:06;16.10;70.00
14709;DHT22;7445;50.774;4.944;2023-05-23T18:25:32;16.00;71.20
14709;DHT22;7445;50.774;4.944;2023-05-23T18:28:00;16.00;77.70
14709;DHT22;7445;50.774;4.944;2023-05-23T18:30:26;15.90;77.80
14709;DHT22;7445;50.774;4.944;2023-05-23T18:32:55;15.80;78.40
14709;DHT22;7445;50.774;4.944;2023-05-23T18:35:21;15.70;82.00
14709;DHT22;7445;50.774;4.944;2023-05-23T18:37:47;15.70;83.90
14709;DHT22;7445;50.774;4.944;2023-05-23T18:40:13;15.70;87.50
14709;DHT22;7445;50.774;4.944;2023-05-23T18:42:39;15.60;87.50
14709;DHT22;7445;50.774;4.944;2023-05-23T18:45:05;15.40;91.10
14709;DHT22;7445;50.774;4.944;2023-05-23T18:47:35;15.50;90.90
14709;DHT22;7445;50.774;4.944;2023-05-23T18:50:01;15.30;92.20
14709;DHT22;7445;50.774;4.944;2023-05-23T18:52:26;15.40;93.30
14709;DHT22;7445;50.774;4.944;2023-05-23T18:54:52;15.50;91.80
14709;DHT22;7445;50.774;4.944;2023-05-23T18:57:19;15.40;91.60
14709;DHT22;7445;50.774;4.944;2023-05-23T18:59:47;15.30;94.20
14709;DHT22;7445;50.774;4.944;2023-05-23T19:02:13;15.20;92.40
14709;DHT22;7445;50.774;4.944;2023-05-23T19:04:39;15.20;93.80
14709;DHT22;7445;50.774;4.944;2023-05-23T19:07:05;15.20;93.90
14709;DHT22;7445;50.774;4.944;2023-05-23T19:09:32;15.10;95.70
14709;DHT22;7445;50.774;4.944;2023-05-23T19:11:57;15.10;96.40
14709;DHT22;7445;50.774;4.944;2023-05-23T19:14:23;15.10;95.90
14709;DHT22;7445;50.774;4.944;2023-05-23T19:16:49;15.00;96.80
14709;DHT22;7445;50.774;4.944;2023-05-23T19:19:16;14.90;97.80
14709;DHT22;7445;50.774;4.944;2023-05-23T19:21:41;14.80;98.10
14709;DHT22;7445;50.774;4.944;2023-05-23T19:24:07;14.70;98.90
14709;DHT22;7445;50.774;4.944;2023-05-23T19:26:33;14.70;99.90
14709;DHT22;7445;50.774;4.944;2023-05-23T19:28:59;14.70;99.30
14709;DHT22;7445;50.774;4.944;2023-05-23T19:31:26;14.60;99.90
14709;DHT22;7445;50.774;4.944;2023-05-23T19:33:51;14.50;99.90
14709;DHT22;7445;50.774;4.944;2023-05-23T19:36:17;14.40;99.90
14709;DHT22;7445;50.774;4.944;2023-05-23T19:38:43;14.30;99.30
14709;DHT22;7445;50.774;4.944;2023-05-23T19:41:09;14.20;99.10
14709;DHT22;7445;50.774;4.944;2023-05-23T19:43:35;14.20;99.90
14709;DHT22;7445;50.774;4.944;2023-05-23T19:46:01;14.10;99.50
14709;DHT22;7445;50.774;4.944;2023-05-23T19:48:26;14.10;98.40
14709;DHT22;7445;50.774;4.944;2023-05-23T19:50:52;14.10;99.00
14709;DHT22;7445;50.774;4.944;2023-05-23T19:53:18;14.00;99.30
14709;DHT22;7445;50.774;4.944;2023-05-23T19:55:43;13.90;99.50
14709;DHT22;7445;50.774;4.944;2023-05-23T19:58:09;13.80;99.90
14709;DHT22;7445;50.774;4.944;2023-05-23T20:00:34;13.70;99.90
14709;DHT22;7445;50.774;4.944;2023-05-23T20:03:00;13.70;99.90
14709;DHT22;7445;50.774;4.944;2023-05-23T20:05:27;13.70;99.90
14709;DHT22;7445;50.774;4.944;2023-05-23T20:07:53;13.70;99.90
14709;DHT22;7445;50.774;4.944;2023-05-23T20:10:18;13.60;99.90
14709;DHT22;7445;50.774;4.944;2023-05-23T20:12:44;13.60;99.90
14709;DHT22;7445;50.774;4.944;2023-05-23T20:15:10;13.50;99.90
14709;DHT22;7445;50.774;4.944;2023-05-23T20:17:36;13.50;99.90
14709;DHT22;7445;50.774;4.944;2023-05-23T20:20:02;13.40;99.90
14709;DHT22;7445;50.774;4.944;2023-05-23T20:22:29;13.30;99.90
14709;DHT22;7445;50.774;4.944;2023-05-23T20:24:55;13.30;99.90
14709;DHT22;7445;50.774;4.944;2023-05-23T20:27:20;13.30;99.90
14709;DHT22;7445;50.774;4.944;2023-05-23T20:29:46;13.20;99.90
14709;DHT22;7445;50.774;4.944;2023-05-23T20:32:12;13.10;99.90
14709;DHT22;7445;50.774;4.944;2023-05-23T20:34:37;13.10;99.90
14709;DHT22;7445;50.774;4.944;2023-05-23T20:37:03;13.00;99.90
14709;DHT22;7445;50.774;4.944;2023-05-23T20:39:29;13.00;99.90
14709;DHT22;7445;50.774;4.944;2023-05-23T20:41:55;13.00;99.90
14709;DHT22;7445;50.774;4.944;2023-05-23T20:44:21;12.90;99.90
14709;DHT22;7445;50.774;4.944;2023-05-23T20:46:47;12.80;99.90
14709;DHT22;7445;50.774;4.944;2023-05-23T20:49:13;12.80;99.90
14709;DHT22;7445;50.774;4.944;2023-05-23T20:51:40;12.70;99.90
14709;DHT22;7445;50.774;4.944;2023-05-23T20:54:06;12.70;99.90
14709;DHT22;7445;50.774;4.944;2023-05-23T20:56:32;12.70;99.90
14709;DHT22;7445;50.774;4.944;2023-05-23T20:58:58;12.60;99.90
14709;DHT22;7445;50.774;4.944;2023-05-23T21:01:26;12.60;99.90
14709;DHT22;7445;50.774;4.944;2023-05-23T21:03:55;12.50;99.90
14709;DHT22;7445;50.774;4.944;2023-05-23T21:06:21;12.50;99.90
14709;DHT22;7445;50.774;4.944;2023-05-23T21:08:47;12.50;99.90
14709;DHT22;7445;50.774;4.944;2023-05-23T21:11:12;12.40;1.00
14709;DHT22;7445;50.774;4.944;2023-05-23T21:13:38;12.40;1.00
14709;DHT22;7445;50.774;4.944;2023-05-23T21:16:04;12.30;1.00
14709;DHT22;7445;50.774;4.944;2023-05-23T21:18:31;12.40;1.00
14709;DHT22;7445;50.774;4.944;2023-05-23T21:20:56;12.30;1.00
14709;DHT22;7445;50.774;4.944;2023-05-23T21:23:22;12.30;1.00
14709;DHT22;7445;50.774;4.944;2023-05-23T21:25:48;12.20;1.00
14709;DHT22;7445;50.774;4.944;2023-05-23T21:28:13;12.20;1.00
14709;DHT22;7445;50.774;4.944;2023-05-23T21:30:39;12.20;1.00
14709;DHT22;7445;50.774;4.944;2023-05-23T21:33:06;12.10;1.00
14709;DHT22;7445;50.774;4.944;2023-05-23T21:35:32;12.00;1.00
14709;DHT22;7445;50.774;4.944;2023-05-23T21:38:00;12.00;1.00
14709;DHT22;7445;50.774;4.944;2023-05-23T21:40:25;12.10;1.00
14709;DHT22;7445;50.774;4.944;2023-05-23T21:42:52;11.90;1.00
